Time;durP1;ratioP1;P1;durP2;ratioP2;P2;SDS_P1;SDS_P2;PMS_P1;PMS_P2;Temp;Humidity;BMP_temperature;BMP_pressure;BME280_temperature;BME280_humidity;BME280_pressure;Samples;Min_cycle;Max_cycle;Signal;HPM_P1;HPM_P2
2023/07/11 00:01:21;;;;;;;;;;;;;;;22.95;55.24;98266.13;5002210;28;19937;-63
2023/07/11 00:04:10;;;;;;;;;;;;;;;22.67;56.11;98261.16;5006638;28;19973;-65
2023/07/11 00:06:58;;;;;;;;;;;;;;;22.64;56.29;98253.63;4998893;28;19976;-62
2023/07/11 00:09:47;;;;;;;;;;;;;;;22.63;56.30;98249.25;5002749;28;20011;-64
2023/07/11 00:12:35;;;;;;;;;;;;;;;22.74;56.02;98254.88;4995178;28;20012;-64
2023/07/11 00:15:24;;;;;;;;;;;;;;;22.89;55.54;98262.13;5003341;28;19933;-65
2023/07/11 00:18:13;;;;;;;;;;;;;;;22.96;55.22;98256.66;5002114;28;19925;-64
2023/07/11 00:21:02;;;;;;;;;;;;;;;22.94;55.13;98253.47;5004423;28;19930;-62
2023/07/11 00:23:50;;;;;;;;;;;;;;;23.00;55.13;98251.94;5008329;28;19932;-62
2023/07/11 00:26:39;;;;;;;;;;;;;;;22.92;55.25;98255.84;5010901;28;19926;-64
2023/07/11 00:29:28;;;;;;;;;;;;;;;22.90;55.44;98258.19;5008310;28;19932;-62
2023/07/11 00:32:16;;;;;;;;;;;;;;;22.88;55.22;98255.00;5003446;28;19926;-63
2023/07/11 00:35:07;;;;;;;;;;;;;;;22.69;56.26;98247.72;4993666;28;19934;-64
2023/07/11 00:37:55;;;;;;;;;;;;;;;22.65;56.12;98246.09;5004799;28;19984;-63
2023/07/11 00:40:44;;;;;;;;;;;;;;;22.74;55.87;98244.59;5006444;28;20016;-67
2023/07/11 00:43:33;;;;;;;;;;;;;;;22.73;55.89;98243.00;5006778;28;19925;-64
2023/07/11 00:46:21;;;;;;;;;;;;;;;22.79;55.38;98246.19;5001795;28;19933;-64
2023/07/11 00:49:09;;;;;;;;;;;;;;;22.69;55.70;98233.06;5005057;28;19975;-64
2023/07/11 00:52:00;;;;;;;;;;;;;;;22.77;55.54;98231.16;4998167;28;20275;-62
2023/07/11 00:54:48;;;;;;;;;;;;;;;22.68;55.63;98223.16;5021460;28;19933;-64
2023/07/11 00:57:38;;;;;;;;;;;;;;;22.64;55.90;98222.38;5005719;28;20422;-63
2023/07/11 01:00:26;;;;;;;;;;;;;;;22.64;55.69;98222.38;5004975;28;19944;-66
2023/07/11 01:03:18;;;;;;;;;;;;;;;22.54;56.16;98223.06;4996682;28;20378;-63
2023/07/11 01:06:10;;;;;;;;;;;;;;;22.63;56.11;98218.78;4999097;28;20024;-63
2023/07/11 01:09:00;;;;;;;;;;;;;;;22.60;55.98;98224.31;5003565;28;20021;-64
2023/07/11 01:11:55;;;;;;;;;;;;;;;22.71;55.87;98227.94;4995340;28;19932;-64
2023/07/11 01:14:45;;;;;;;;;;;;;;;22.53;56.21;98216.75;5004186;28;20565;-63
2023/07/11 01:17:33;;;;;;;;;;;;;;;22.53;56.28;98215.94;5001392;28;19932;-63
2023/07/11 01:20:22;;;;;;;;;;;;;;;22.60;55.93;98216.78;4994753;28;19933;-66
2023/07/11 01:23:12;;;;;;;;;;;;;;;22.49;56.42;98216.72;5006596;28;20009;-62
2023/07/11 01:26:01;;;;;;;;;;;;;;;22.56;56.35;98212.41;5000882;28;20454;-65
2023/07/11 01:28:50;;;;;;;;;;;;;;;22.57;56.12;98213.97;5016221;28;19925;-62
2023/07/11 01:31:38;;;;;;;;;;;;;;;22.55;56.06;98208.06;5004838;28;20444;-62
2023/07/11 01:34:27;;;;;;;;;;;;;;;22.49;55.86;98204.84;5003906;28;20009;-62
2023/07/11 01:37:15;;;;;;;;;;;;;;;22.47;56.05;98207.97;4999245;28;19929;-62
2023/07/11 01:40:05;;;;;;;;;;;;;;;22.53;55.74;98204.84;5011629;28;19926;-64
2023/07/11 01:42:54;;;;;;;;;;;;;;;22.41;56.25;98201.19;5003997;28;20023;-63
2023/07/11 01:45:43;;;;;;;;;;;;;;;22.20;56.62;98199.03;4999507;28;20031;-63
2023/07/11 01:48:31;;;;;;;;;;;;;;;22.13;56.78;98196.22;4992584;28;19993;-65
2023/07/11 01:51:19;;;;;;;;;;;;;;;22.19;56.54;98204.97;5009596;28;19952;-63
2023/07/11 01:54:07;;;;;;;;;;;;;;;22.23;56.39;98201.06;4998616;28;20398;-61
2023/07/11 01:56:59;;;;;;;;;;;;;;;22.25;56.42;98197.91;5003851;28;19933;-65
2023/07/11 01:59:47;;;;;;;;;;;;;;;22.25;56.21;98197.09;5017243;28;19932;-62
2023/07/11 02:02:36;;;;;;;;;;;;;;;22.31;56.27;98196.38;4999805;28;19933;-63
2023/07/11 02:05:24;;;;;;;;;;;;;;;22.39;55.93;98203.56;5010917;28;20438;-65
2023/07/11 02:08:13;;;;;;;;;;;;;;;22.28;56.76;98194.38;4997449;28;20303;-64
2023/07/11 02:11:01;;;;;;;;;;;;;;;22.27;56.71;98186.47;4996053;28;19936;-63
2023/07/11 02:13:51;;;;;;;;;;;;;;;22.07;57.19;98188.63;5003836;28;19932;-62
2023/07/11 02:16:39;;;;;;;;;;;;;;;22.11;57.19;98189.47;5001132;28;19944;-67
2023/07/11 02:19:28;;;;;;;;;;;;;;;22.11;57.45;98186.72;5001808;28;19926;-65
2023/07/11 02:22:16;;;;;;;;;;;;;;;21.94;57.92;98186.13;5002098;28;19925;-64
2023/07/11 02:25:07;;;;;;;;;;;;;;;21.98;57.70;98188.91;5006088;28;19941;-64
2023/07/11 02:27:55;;;;;;;;;;;;;;;22.05;57.44;98185.41;5009573;28;19932;-63
2023/07/11 02:30:44;;;;;;;;;;;;;;;21.97;57.70;98190.88;5004532;28;20021;-63
2023/07/11 02:33:33;;;;;;;;;;;;;;;22.12;57.09;98191.06;4996980;28;19932;-61
2023/07/11 02:36:21;;;;;;;;;;;;;;;;;;5002959;28;20581;-64
2023/07/11 02:39:09;;;;;;;;;;;;;;;22.01;57.72;98184.59;5015731;28;19929;-66
2023/07/11 02:41:57;;;;;;;;;;;;;;;21.98;57.60;98191.69;5005026;28;19968;-63
2023/07/11 02:44:45;;;;;;;;;;;;;;;21.81;58.23;98197.81;5006787;28;20071;-64
2023/07/11 02:47:34;;;;;;;;;;;;;;;21.75;58.49;98196.59;5004031;28;19929;-66
2023/07/11 02:50:23;;;;;;;;;;;;;;;21.73;58.22;98196.16;5004841;28;19948;-67
2023/07/11 02:53:11;;;;;;;;;;;;;;;21.69;58.31;98185.06;5002829;28;19930;-63
2023/07/11 02:56:00;;;;;;;;;;;;;;;21.55;58.69;98190.44;5008107;28;20601;-63
2023/07/11 02:58:48;;;;;;;;;;;;;;;21.62;58.41;98190.50;5007941;28;20567;-63
2023/07/11 03:01:36;;;;;;;;;;;;;;;21.70;58.37;98181.13;5002706;28;19933;-65
2023/07/11 03:04:28;;;;;;;;;;;;;;;21.78;57.93;98185.53;5000942;28;19930;-66
2023/07/11 03:07:16;;;;;;;;;;;;;;;21.79;57.96;98189.13;5005884;28;20004;-64
2023/07/11 03:10:05;;;;;;;;;;;;;;;21.75;57.92;98189.09;5003149;28;20486;-64
2023/07/11 03:12:53;;;;;;;;;;;;;;;21.74;58.07;98175.63;5016557;28;20364;-63
2023/07/11 03:15:41;;;;;;;;;;;;;;;21.70;58.30;98176.38;5004339;28;19930;-63
2023/07/11 03:18:30;;;;;;;;;;;;;;;21.67;58.06;98176.34;5002037;28;19936;-61
2023/07/11 03:21:19;;;;;;;;;;;;;;;21.71;58.02;98177.97;5003482;28;19929;-65
2023/07/11 03:24:08;;;;;;;;;;;;;;;21.67;58.16;98179.09;5003290;28;19929;-63
2023/07/11 03:26:56;;;;;;;;;;;;;;;21.54;58.61;98173.03;5003785;28;19973;-60
2023/07/11 03:29:44;;;;;;;;;;;;;;;21.48;58.73;98179.28;5013194;28;20490;-65
2023/07/11 03:32:33;;;;;;;;;;;;;;;21.34;59.12;98166.88;5003548;28;20574;-64
2023/07/11 03:35:21;;;;;;;;;;;;;;;21.35;59.22;98165.69;5003374;28;20416;-64
2023/07/11 03:38:11;;;;;;;;;;;;;;;21.22;59.69;98169.88;5001546;28;20048;-63
2023/07/11 03:40:59;;;;;;;;;;;;;;;21.04;60.23;98172.41;4996987;28;19981;-63
2023/07/11 03:43:47;;;;;;;;;;;;;;;21.01;60.31;98166.81;4997188;28;19933;-63
2023/07/11 03:46:35;;;;;;;;;;;;;;;21.15;59.67;98165.06;5003227;28;20413;-63
2023/07/11 03:49:24;;;;;;;;;;;;;;;21.23;59.84;98168.69;5016234;28;20016;-65
2023/07/11 03:52:12;;;;;;;;;;;;;;;21.22;59.67;98164.34;4996623;28;19925;-62
2023/07/11 03:55:01;;;;;;;;;;;;;;;21.22;59.95;98174.59;5005691;28;20644;-66
2023/07/11 03:57:49;;;;;;;;;;;;;;;21.00;60.46;98170.75;5010281;28;19980;-64
2023/07/11 04:00:37;;;;;;;;;;;;;;;21.10;60.20;98164.59;5006210;28;19938;-61
2023/07/11 04:03:26;;;;;;;;;;;;;;;21.17;60.15;98156.38;5003251;28;19972;-62
2023/07/11 04:06:14;;;;;;;;;;;;;;;21.20;60.14;98155.63;5006033;28;20016;-66
2023/07/11 04:09:02;;;;;;;;;;;;;;;21.33;59.67;98151.47;5003377;28;19989;-63
2023/07/11 04:11:52;;;;;;;;;;;;;;;21.29;59.44;98149.81;4992462;28;20016;-65
2023/07/11 04:14:40;;;;;;;;;;;;;;;21.34;59.42;98152.28;4989610;28;19933;-64
2023/07/11 04:17:28;;;;;;;;;;;;;;;21.29;59.57;98150.59;4987881;28;19933;-63
2023/07/11 04:20:17;;;;;;;;;;;;;;;21.30;59.70;98152.22;5005977;28;19937;-62
2023/07/11 04:23:08;;;;;;;;;;;;;;;21.37;59.34;98155.09;5006442;28;19976;-62
2023/07/11 04:25:56;;;;;;;;;;;;;;;21.32;59.31;98154.63;5003110;28;20654;-63
2023/07/11 04:28:45;;;;;;;;;;;;;;;21.35;59.33;98149.13;5006409;28;19926;-63
2023/07/11 04:31:33;;;;;;;;;;;;;;;21.16;59.48;98146.50;5013336;28;20287;-62
2023/07/11 04:34:21;;;;;;;;;;;;;;;21.19;59.34;98145.72;5009533;28;19933;-62
2023/07/11 04:37:09;;;;;;;;;;;;;;;21.20;59.71;98152.88;5004949;28;19933;-63
2023/07/11 04:39:57;;;;;;;;;;;;;;;21.06;60.08;98161.75;5000601;28;19940;-61
2023/07/11 04:42:46;;;;;;;;;;;;;;;21.16;59.75;98155.59;4990617;28;19929;-66
2023/07/11 04:45:35;;;;;;;;;;;;;;;21.22;59.81;98155.25;4995068;28;20528;-64
2023/07/11 04:48:24;;;;;;;;;;;;;;;21.24;59.77;98147.38;5001466;28;19992;-62
2023/07/11 04:51:12;;;;;;;;;;;;;;;21.29;59.44;98147.03;5000587;28;19980;-64
2023/07/11 04:54:00;;;;;;;;;;;;;;;21.27;59.37;98141.91;4999944;28;20398;-63
2023/07/11 04:56:54;;;;;;;;;;;;;;;21.42;58.99;98148.44;5002035;28;19944;-63
2023/07/11 04:59:43;;;;;;;;;;;;;;;21.41;58.91;98153.16;5002765;28;19972;-64
2023/07/11 05:02:32;;;;;;;;;;;;;;;21.51;58.92;98146.16;5003002;28;20483;-61
2023/07/11 05:05:20;;;;;;;;;;;;;;;21.60;58.67;98143.09;4999513;28;20291;-66
2023/07/11 05:08:08;;;;;;;;;;;;;;;21.58;58.57;98148.22;4998227;28;19937;-63
2023/07/11 05:10:59;;;;;;;;;;;;;;;21.58;58.88;98149.00;5000768;28;19934;-63
2023/07/11 05:13:48;;;;;;;;;;;;;;;21.68;58.50;98144.78;5002411;28;20138;-65
2023/07/11 05:16:36;;;;;;;;;;;;;;;21.84;57.75;98141.75;4998097;28;19929;-63
2023/07/11 05:19:26;;;;;;;;;;;;;;;21.77;58.13;98136.94;5005469;28;19933;-65
2023/07/11 05:22:14;;;;;;;;;;;;;;;21.83;58.22;98145.69;4994380;28;19936;-65
2023/07/11 05:25:02;;;;;;;;;;;;;;;21.89;58.18;98136.69;4994746;28;19936;-63
2023/07/11 05:27:50;;;;;;;;;;;;;;;21.80;58.10;98138.97;5003100;28;19957;-66
2023/07/11 05:30:39;;;;;;;;;;;;;;;21.93;57.98;98143.03;4996805;28;20138;-68
2023/07/11 05:33:27;;;;;;;;;;;;;;;21.99;57.53;98149.00;5000157;28;19933;-62
2023/07/11 05:36:25;;;;;;;;;;;;;;;22.02;57.52;98141.94;5001989;28;19936;-62
2023/07/11 05:39:15;;;;;;;;;;;;;;;22.00;57.48;98138.72;5002369;28;19985;-65
2023/07/11 05:42:04;;;;;;;;;;;;;;;22.06;57.03;98142.75;4997233;28;19925;-63
2023/07/11 05:44:54;;;;;;;;;;;;;;;22.19;57.24;98144.09;5001133;28;20519;-62
2023/07/11 05:47:42;;;;;;;;;;;;;;;22.22;57.13;98140.56;5001415;28;19929;-65
2023/07/11 05:50:31;;;;;;;;;;;;;;;22.30;56.45;98138.63;5001612;28;20547;-63
2023/07/11 05:53:20;;;;;;;;;;;;;;;22.25;55.77;98134.25;5002467;28;19930;-63
2023/07/11 05:56:08;;;;;;;;;;;;;;;22.35;55.53;98135.50;5002941;28;19929;-65
2023/07/11 05:58:57;;;;;;;;;;;;;;;22.42;54.96;98128.03;5004100;28;20395;-64
2023/07/11 06:01:45;;;;;;;;;;;;;;;22.48;55.88;98126.53;4999142;28;19937;-64
2023/07/11 06:04:34;;;;;;;;;;;;;;;22.55;55.58;98124.97;5006865;28;19925;-65
2023/07/11 06:07:22;;;;;;;;;;;;;;;22.56;55.05;98123.78;4997252;28;19926;-63
2023/07/11 06:10:12;;;;;;;;;;;;;;;22.59;55.04;98115.53;5000061;28;19969;-66
2023/07/11 06:13:00;;;;;;;;;;;;;;;22.58;54.98;98124.19;5004099;28;19925;-68
2023/07/11 06:15:48;;;;;;;;;;;;;;;22.73;54.36;98114.81;5008534;28;19952;-64
2023/07/11 06:18:37;;;;;;;;;;;;;;;22.83;53.83;98119.59;5005078;28;19926;-62
2023/07/11 06:21:25;;;;;;;;;;;;;;;22.97;53.13;98124.47;5009902;28;19965;-67
2023/07/11 06:24:16;;;;;;;;;;;;;;;23.08;52.81;98124.53;5005978;28;20375;-66
2023/07/11 06:27:06;;;;;;;;;;;;;;;23.14;52.93;98120.19;5005500;28;19932;-62
2023/07/11 06:29:54;;;;;;;;;;;;;;;23.26;52.77;98122.59;5007024;28;19926;-64
2023/07/11 06:32:42;;;;;;;;;;;;;;;23.33;52.37;98121.84;5004037;28;19925;-64
2023/07/11 06:35:31;;;;;;;;;;;;;;;23.41;52.22;98121.47;5003702;28;19925;-63
2023/07/11 06:38:19;;;;;;;;;;;;;;;23.43;52.39;98118.31;5003692;28;20704;-63
2023/07/11 06:41:09;;;;;;;;;;;;;;;23.44;52.08;98120.72;5004894;28;19943;-64
2023/07/11 06:43:59;;;;;;;;;;;;;;;23.51;52.00;98119.91;5004712;28;19961;-65
2023/07/11 06:46:48;;;;;;;;;;;;;;;23.52;51.99;98119.53;5008817;28;19925;-61
2023/07/11 06:49:36;;;;;;;;;;;;;;;23.59;52.26;98127.06;5021886;28;19964;-66
2023/07/11 06:52:24;;;;;;;;;;;;;;;23.67;52.28;98119.59;5006700;28;19941;-64
2023/07/11 06:55:13;;;;;;;;;;;;;;;23.75;52.09;98118.41;5005033;28;19925;-62
2023/07/11 06:58:03;;;;;;;;;;;;;;;23.64;51.59;98123.16;4999329;28;19926;-66
2023/07/11 07:00:54;;;;;;;;;;;;;;;23.68;51.81;98123.94;4998014;28;19956;-68
2023/07/11 07:03:42;;;;;;;;;;;;;;;23.74;51.90;98116.81;5006246;28;19948;-65
2023/07/11 07:06:31;;;;;;;;;;;;;;;23.88;51.44;98113.28;5007414;28;19940;-65
2023/07/11 07:09:20;;;;;;;;;;;;;;;23.99;50.80;98105.78;5003284;28;19934;-58
2023/07/11 07:12:08;;;;;;;;;;;;;;;24.10;51.29;98111.31;5005140;28;20370;-59
2023/07/11 07:14:58;;;;;;;;;;;;;;;24.17;50.80;98111.31;5008168;28;20540;-60
2023/07/11 07:17:47;;;;;;;;;;;;;;;24.27;50.50;98102.19;5006132;28;19930;-58
2023/07/11 07:20:36;;;;;;;;;;;;;;;24.35;49.63;98111.31;5000042;28;19929;-58
2023/07/11 07:23:37;;;;;;;;;;;;;;;24.33;49.39;98106.16;5005279;28;19933;-58
2023/07/11 07:26:26;;;;;;;;;;;;;;;24.42;49.35;98103.78;5006079;28;19956;-59
2023/07/11 07:29:14;;;;;;;;;;;;;;;24.51;49.01;98106.19;5008921;28;19933;-58
2023/07/11 07:32:02;;;;;;;;;;;;;;;24.60;48.72;98105.75;5002404;28;19936;-58
2023/07/11 07:34:51;;;;;;;;;;;;;;;24.67;48.17;98094.63;5000830;28;19932;-60
2023/07/11 07:37:39;;;;;;;;;;;;;;;24.74;47.89;98100.16;5003157;28;19934;-57
2023/07/11 07:40:28;;;;;;;;;;;;;;;24.77;47.74;98089.06;4990563;28;19997;-58
2023/07/11 07:43:18;;;;;;;;;;;;;;;24.85;48.10;98089.81;5013879;28;19964;-57
2023/07/11 07:46:07;;;;;;;;;;;;;;;24.92;47.98;98084.22;5011070;28;20015;-59
2023/07/11 07:48:55;;;;;;;;;;;;;;;24.98;47.17;98084.59;5002582;28;20008;-59
2023/07/11 07:51:45;;;;;;;;;;;;;;;25.04;46.54;98083.78;5007518;28;19930;-59
2023/07/11 07:54:34;;;;;;;;;;;;;;;25.12;46.87;98083.78;5002286;28;19925;-60
2023/07/11 07:57:22;;;;;;;;;;;;;;;25.18;47.13;98090.50;5001754;28;19926;-60
2023/07/11 08:00:11;;;;;;;;;;;;;;;25.27;46.58;98076.97;4994539;28;20134;-59
2023/07/11 08:03:10;;;;;;;;;;;;;;;25.34;45.93;98077.72;5007435;28;19933;-57
2023/07/11 08:05:59;;;;;;;;;;;;;;;25.40;45.96;98075.28;5005767;28;19990;-62
2023/07/11 08:09:02;;;;;;;;;;;;;;;25.45;46.13;98072.09;5003583;28;20437;-58
2023/07/11 08:11:50;;;;;;;;;;;;;;;25.58;44.30;98073.22;5002900;28;19955;-57
2023/07/11 08:14:39;;;;;;;;;;;;;;;25.63;44.55;98065.63;5006951;28;19936;-59
2023/07/11 08:17:27;;;;;;;;;;;;;;;25.68;44.97;98068.00;4998867;28;22682;-60
2023/07/11 08:20:18;;;;;;;;;;;;;;;25.75;44.51;98062.41;5002174;28;19936;-59
2023/07/11 08:23:06;;;;;;;;;;;;;;;25.80;44.47;98067.53;5004023;28;19926;-60
2023/07/11 08:25:56;;;;;;;;;;;;;;;25.88;43.06;98055.13;5002840;28;19929;-59
2023/07/11 08:28:44;;;;;;;;;;;;;;;25.97;44.39;98052.69;5002401;28;19926;-65
2023/07/11 08:31:32;;;;;;;;;;;;;;;25.88;44.41;98048.78;4992395;28;20476;-62
2023/07/11 08:34:21;;;;;;;;;;;;;;;26.15;41.10;98046.94;5006514;28;19999;-64
2023/07/11 08:37:09;;;;;;;;;;;;;;;26.10;41.67;98050.19;5010729;28;19972;-69
2023/07/11 08:39:58;;;;;;;;;;;;;;;25.89;43.90;98042.00;5007001;28;19936;-62
2023/07/11 08:42:50;;;;;;;;;;;;;;;25.97;42.50;98040.75;5002493;28;19996;-65
2023/07/11 08:45:39;;;;;;;;;;;;;;;26.08;41.95;98038.66;4989369;28;20427;-64
2023/07/11 08:48:28;;;;;;;;;;;;;;;26.00;43.43;98034.38;4985343;28;20401;-65
2023/07/11 08:51:20;;;;;;;;;;;;;;;26.02;42.97;98029.97;4995278;28;20067;-63
2023/07/11 08:54:11;;;;;;;;;;;;;;;26.47;41.28;98026.38;5005134;28;20016;-65
2023/07/11 08:57:00;;;;;;;;;;;;;;;26.29;43.13;98026.53;4988869;28;20020;-64
2023/07/11 08:59:52;;;;;;;;;;;;;;;26.31;43.25;98021.31;4997492;28;19930;-65
2023/07/11 09:02:41;;;;;;;;;;;;;;;26.25;43.12;98011.84;5003714;28;19937;-62
2023/07/11 09:05:34;;;;;;;;;;;;;;;26.30;43.04;98017.75;5004043;28;19965;-65
2023/07/11 09:08:22;;;;;;;;;;;;;;;26.50;42.23;98009.63;5000263;28;19933;-66
2023/07/11 09:11:12;;;;;;;;;;;;;;;26.59;41.82;98000.78;4999554;28;19929;-64
2023/07/11 09:14:03;;;;;;;;;;;;;;;26.59;41.65;98009.94;5002731;28;19929;-66
2023/07/11 09:16:58;;;;;;;;;;;;;;;26.77;41.64;98003.34;5006437;28;20390;-64
2023/07/11 09:19:51;;;;;;;;;;;;;;;26.90;41.13;98001.59;4997132;28;19973;-62
2023/07/11 09:22:42;;;;;;;;;;;;;;;27.10;40.71;97994.16;5002025;28;19930;-65
2023/07/11 09:25:32;;;;;;;;;;;;;;;27.09;41.24;97989.00;5000885;28;19960;-61
2023/07/11 09:28:21;;;;;;;;;;;;;;;27.09;41.47;97991.81;5005295;28;20000;-61
2023/07/11 09:31:11;;;;;;;;;;;;;;;26.93;41.88;97988.81;5004498;28;19939;-61
2023/07/11 09:34:01;;;;;;;;;;;;;;;27.01;41.40;97988.31;5002086;28;20019;-64
2023/07/11 09:36:50;;;;;;;;;;;;;;;27.03;40.87;97977.50;4993258;28;20391;-62
2023/07/11 09:39:39;;;;;;;;;;;;;;;27.01;41.98;97968.78;4992547;28;20423;-62
2023/07/11 09:42:35;;;;;;;;;;;;;;;27.04;41.24;97972.72;4998274;28;19930;-62
2023/07/11 09:45:24;;;;;;;;;;;;;;;27.23;40.87;97968.50;5002659;28;19937;-60
2023/07/11 09:48:15;;;;;;;;;;;;;;;27.28;40.72;97965.25;5001019;28;19956;-61
2023/07/11 09:51:11;;;;;;;;;;;;;;;27.32;40.69;97966.75;5000574;28;19960;-61
2023/07/11 09:54:01;;;;;;;;;;;;;;;27.76;39.66;97961.31;4999813;28;19933;-61
2023/07/11 09:56:51;;;;;;;;;;;;;;;27.64;39.87;97955.06;4994567;28;20473;-60
2023/07/11 09:59:43;;;;;;;;;;;;;;;27.59;40.35;97949.19;5000015;28;19933;-63
2023/07/11 10:02:31;;;;;;;;;;;;;;;27.86;38.99;97951.97;4996597;28;19968;-63
2023/07/11 10:05:22;;;;;;;;;;;;;;;27.67;41.56;97948.66;4996737;28;19936;-61
2023/07/11 10:08:14;;;;;;;;;;;;;;;27.65;44.45;97948.31;4998128;28;20414;-60
2023/07/11 10:11:03;;;;;;;;;;;;;;;27.65;42.75;97945.50;5000252;28;19986;-62
2023/07/11 10:13:55;;;;;;;;;;;;;;;27.80;43.88;97939.69;4990527;28;19944;-62
2023/07/11 10:16:44;;;;;;;;;;;;;;;27.72;41.99;97939.03;5002494;28;19926;-60
2023/07/11 10:19:32;;;;;;;;;;;;;;;27.68;41.38;97939.06;5000634;28;19926;-61
2023/07/11 10:22:21;;;;;;;;;;;;;;;28.02;40.33;97938.13;4993177;28;19925;-62
2023/07/11 10:25:17;;;;;;;;;;;;;;;28.10;39.32;97927.59;5004606;28;19940;-61
2023/07/11 10:28:08;;;;;;;;;;;;;;;28.28;38.16;97907.69;5005831;28;20405;-63
2023/07/11 10:30:58;;;;;;;;;;;;;;;28.52;37.75;97914.81;5001888;28;20107;-62
2023/07/11 10:33:47;;;;;;;;;;;;;;;28.63;37.87;97906.19;5011613;28;19926;-62
2023/07/11 10:36:45;;;;;;;;;;;;;;;28.45;41.17;97901.00;5015903;28;20294;-63
2023/07/11 10:39:36;;;;;;;;;;;;;;;28.34;42.50;97900.44;5001660;28;19926;-62
2023/07/11 10:42:27;;;;;;;;;;;;;;;28.33;41.91;97894.03;4995985;28;19959;-63
2023/07/11 10:45:17;;;;;;;;;;;;;;;28.25;39.99;97886.22;5008727;28;19925;-62
2023/07/11 10:48:07;;;;;;;;;;;;;;;28.54;37.29;97884.41;4996826;28;20386;-62
2023/07/11 10:50:58;;;;;;;;;;;;;;;28.42;40.35;97888.66;5003988;28;20008;-62
2023/07/11 10:53:48;;;;;;;;;;;;;;;28.88;36.56;97883.28;5006461;28;19933;-61
2023/07/11 10:56:37;;;;;;;;;;;;;;;28.65;39.36;97873.78;5006511;28;19991;-61
2023/07/11 10:59:30;;;;;;;;;;;;;;;28.57;37.81;97864.00;5002555;28;19932;-62
2023/07/11 11:02:21;;;;;;;;;;;;;;;28.51;39.88;97876.91;5005578;28;19929;-61
2023/07/11 11:05:14;;;;;;;;;;;;;;;28.43;40.85;97859.50;5015328;28;19926;-61
2023/07/11 11:08:03;;;;;;;;;;;;;;;28.79;38.61;97847.53;5003550;28;19936;-60
2023/07/11 11:10:53;;;;;;;;;;;;;;;28.52;38.18;97842.16;5003180;28;19980;-61
2023/07/11 11:13:42;;;;;;;;;;;;;;;28.57;38.74;97850.03;5009723;28;19976;-62
2023/07/11 11:16:32;;;;;;;;;;;;;;;28.65;39.00;97847.84;5002492;28;19936;-63
2023/07/11 11:19:22;;;;;;;;;;;;;;;28.44;38.90;97841.53;5006241;28;20286;-62
2023/07/11 11:22:12;;;;;;;;;;;;;;;28.40;39.99;97832.44;4984050;28;20326;-62
2023/07/11 11:25:01;;;;;;;;;;;;;;;28.34;38.03;97825.78;5008711;28;19932;-62
2023/07/11 11:27:52;;;;;;;;;;;;;;;28.39;39.13;97825.28;5006820;28;19925;-61
2023/07/11 11:30:43;;;;;;;;;;;;;;;28.39;40.36;97825.28;5006821;28;20631;-62
2023/07/11 11:33:36;;;;;;;;;;;;;;;28.44;39.65;97826.75;5002981;28;19925;-61
2023/07/11 11:36:26;;;;;;;;;;;;;;;28.46;39.52;97818.72;5004917;28;19936;-62
2023/07/11 11:39:16;;;;;;;;;;;;;;;28.50;38.45;97808.28;5002980;28;19925;-62
2023/07/11 11:42:08;;;;;;;;;;;;;;;28.70;37.94;97814.56;5000846;28;19932;-62
2023/07/11 11:44:59;;;;;;;;;;;;;;;28.62;38.55;97813.16;4999734;28;20603;-60
2023/07/11 11:48:10;;;;;;;;;;;;;;;28.96;37.78;97804.41;5001246;28;20648;-65
2023/07/11 11:51:03;;;;;;;;;;;;;;;28.99;37.36;97805.56;5010116;28;20286;-59
2023/07/11 11:54:04;;;;;;;;;;;;;;;29.28;34.94;97800.00;5000867;28;19999;-62
2023/07/11 11:56:54;;;;;;;;;;;;;;;29.69;34.32;97790.94;5005779;28;20024;-62
2023/07/11 11:59:42;;;;;;;;;;;;;;;29.39;35.67;97791.34;5003772;28;19932;-60
2023/07/11 12:02:34;;;;;;;;;;;;;;;29.80;34.31;97781.47;5010141;28;19937;-62
2023/07/11 12:05:22;;;;;;;;;;;;;;;29.38;36.30;97784.19;5000692;28;19964;-63
2023/07/11 12:08:23;;;;;;;;;;;;;;;29.72;35.85;97773.28;4997891;28;20766;-65
2023/07/11 12:11:18;;;;;;;;;;;;;;;29.11;37.60;97771.28;4999374;28;19930;-62
2023/07/11 12:14:19;;;;;;;;;;;;;;;29.38;35.21;97770.19;4997095;28;19925;-61
2023/07/11 12:17:17;;;;;;;;;;;;;;;29.05;36.64;97764.63;4997205;28;19932;-62
2023/07/11 12:20:09;;;;;;;;;;;;;;;29.38;35.94;97765.38;4998825;28;19934;-61
2023/07/11 12:23:14;;;;;;;;;;;;;;;29.15;36.23;97763.59;4996911;28;19930;-61
2023/07/11 12:26:22;;;;;;;;;;;;;;;29.26;36.15;97757.72;4993818;28;20121;-63
2023/07/11 12:29:29;;;;;;;;;;;;;;;29.52;35.32;97741.03;4995350;28;19934;-62
2023/07/11 12:32:37;;;;;;;;;;;;;;;30.20;33.10;97740.69;4997421;28;19956;-64
2023/07/11 12:35:26;;;;;;;;;;;;;;;29.90;34.95;97732.78;4993395;28;19975;-61
2023/07/11 12:38:15;;;;;;;;;;;;;;;30.16;32.36;97730.81;4996433;28;19933;-61
2023/07/11 12:41:07;;;;;;;;;;;;;;;30.00;34.06;97742.88;4996702;28;19936;-60
2023/07/11 12:43:59;;;;;;;;;;;;;;;29.67;34.09;97733.81;4993249;28;19929;-60
2023/07/11 12:46:51;;;;;;;;;;;;;;;29.59;35.34;97730.44;5002727;28;20020;-59
2023/07/11 12:49:41;;;;;;;;;;;;;;;29.33;35.73;97723.94;5004756;28;20551;-61
2023/07/11 12:52:29;;;;;;;;;;;;;;;29.81;33.71;97713.81;5016666;28;19925;-61
2023/07/11 12:55:17;;;;;;;;;;;;;;;29.43;35.39;97702.47;5002748;28;19952;-60
2023/07/11 12:58:06;;;;;;;;;;;;;;;29.96;34.23;97700.19;5011722;28;20025;-60
2023/07/11 13:00:56;;;;;;;;;;;;;;;30.19;34.46;97694.28;5008434;28;20284;-62
2023/07/11 13:03:44;;;;;;;;;;;;;;;29.84;34.83;97678.53;5009429;28;19987;-62
2023/07/11 13:06:33;;;;;;;;;;;;;;;29.68;35.60;97688.59;5002220;28;19925;-61
2023/07/11 13:09:22;;;;;;;;;;;;;;;29.93;34.41;97690.63;4996323;28;19964;-62
2023/07/11 13:12:11;;;;;;;;;;;;;;;29.66;35.00;97685.44;4999665;28;19930;-61
2023/07/11 13:15:04;;;;;;;;;;;;;;;29.47;35.25;97683.59;4998611;28;20383;-62
2023/07/11 13:17:54;;;;;;;;;;;;;;;29.26;36.57;97684.19;5005360;28;19925;-63
2023/07/11 13:20:43;;;;;;;;;;;;;;;29.53;34.91;97673.44;5002165;28;19926;-61
2023/07/11 13:23:32;;;;;;;;;;;;;;;29.44;36.43;97676.06;5003372;28;19926;-61
2023/07/11 13:26:21;;;;;;;;;;;;;;;29.90;35.09;97665.56;4999808;28;19986;-61
2023/07/11 13:29:14;;;;;;;;;;;;;;;29.90;33.87;97671.16;5009912;28;20525;-62
2023/07/11 13:32:04;;;;;;;;;;;;;;;29.74;34.54;97670.00;5002438;28;19925;-62
2023/07/11 13:34:54;;;;;;;;;;;;;;;29.72;33.29;97680.88;5001782;28;19926;-60
2023/07/11 13:37:45;;;;;;;;;;;;;;;29.64;33.83;97678.72;5005086;28;19933;-61
2023/07/11 13:40:34;;;;;;;;;;;;;;;29.80;32.50;97673.03;5002505;28;19925;-62
2023/07/11 13:43:23;;;;;;;;;;;;;;;29.57;35.02;97690.91;5005925;28;19949;-62
2023/07/11 13:46:11;;;;;;;;;;;;;;;29.71;33.00;97682.09;5005091;28;19929;-63
2023/07/11 13:49:07;;;;;;;;;;;;;;;29.69;34.30;97673.34;4998197;28;19925;-61
2023/07/11 13:51:58;;;;;;;;;;;;;;;29.59;35.29;97677.25;5001440;28;19941;-61
2023/07/11 13:54:51;;;;;;;;;;;;;;;29.30;35.74;97670.88;5021119;28;20016;-61
2023/07/11 13:57:39;;;;;;;;;;;;;;;29.28;36.23;97664.94;5005326;28;20291;-61
2023/07/11 14:00:28;;;;;;;;;;;;;;;29.51;35.84;97656.28;5006023;28;19980;-61
2023/07/11 14:03:21;;;;;;;;;;;;;;;29.38;36.95;97666.66;4999068;28;20497;-62
2023/07/11 14:06:14;;;;;;;;;;;;;;;29.70;35.47;97663.72;4998337;28;19929;-62
2023/07/11 14:09:03;;;;;;;;;;;;;;;29.81;35.21;97654.22;5000295;28;20382;-63
2023/07/11 14:11:51;;;;;;;;;;;;;;;29.75;35.39;97643.56;5000879;28;19926;-61
2023/07/11 14:14:40;;;;;;;;;;;;;;;30.14;33.86;97644.41;5002862;28;19926;-62
2023/07/11 14:17:28;;;;;;;;;;;;;;;30.05;34.02;97633.06;5002063;28;19925;-62
2023/07/11 14:20:17;;;;;;;;;;;;;;;29.83;35.41;97626.56;5003581;28;19930;-61
2023/07/11 14:23:10;;;;;;;;;;;;;;;29.64;35.87;97626.31;5004245;28;19933;-60
2023/07/11 14:26:00;;;;;;;;;;;;;;;29.66;34.38;97607.03;4997266;28;19936;-61
2023/07/11 14:28:48;;;;;;;;;;;;;;;29.71;35.45;97609.28;5014293;28;19929;-61
2023/07/11 14:31:37;;;;;;;;;;;;;;;29.82;35.16;97613.78;5006908;28;19929;-61
2023/07/11 14:34:26;;;;;;;;;;;;;;;30.06;34.26;97605.84;5006634;28;20040;-61
2023/07/11 14:37:15;;;;;;;;;;;;;;;30.81;32.32;97594.97;5006743;28;19926;-61
2023/07/11 14:40:04;;;;;;;;;;;;;;;30.60;33.68;97613.28;5004768;28;19994;-61
2023/07/11 14:42:53;;;;;;;;;;;;;;;30.38;34.37;97610.44;5001907;28;19925;-60
2023/07/11 14:45:42;;;;;;;;;;;;;;;30.04;35.78;97599.88;5008210;28;20299;-61